OHK1105 RJFU-RCTP
Flight info
| Callsign | OHK1105 |
|---|---|
| Flight time | N/A |
| Altitude | 38000 |
| Route | KAZSA A582 HKC A1 DRAKE DRAKE1A |
| Aircraft | A35K/H-SDE2E3GHIJ3J4J5LM1ORWXY/LB1D1 |
Departure
| Time | N/A |
|---|---|
| Airport | Nagasaki Airport (RJFU) |
Arrival
| Time | 2026-04-30 18:39 |
|---|---|
| Airport | Taiwan Taoyuan International Airport (RCTP) |
| Time | Latitude | Longitude | Altitude | Speed | Heading |
|---|---|---|---|---|---|
| 2026-04-30 17:39 | 28.36852 | 125.75363 | 38081 ft | 396 kts | 236° |
| 2026-04-30 17:42 | 28.19414 | 125.51004 | 38084 ft | 400 kts | 236° |
| 2026-04-30 17:43 | 28.10607 | 125.38754 | 38086 ft | 402 kts | 236° |
| 2026-04-30 17:44 | 27.99970 | 125.24005 | 38095 ft | 405 kts | 236° |
| 2026-04-30 17:47 | 27.83842 | 125.01740 | 38094 ft | 408 kts | 236° |
| 2026-04-30 17:48 | 27.71166 | 124.84322 | 38099 ft | 412 kts | 236° |
| 2026-04-30 17:50 | 27.56560 | 124.64330 | 38101 ft | 415 kts | 236° |
| 2026-04-30 17:52 | 27.45516 | 124.49252 | 38104 ft | 418 kts | 236° |
| 2026-04-30 17:54 | 27.28751 | 124.26470 | 38108 ft | 422 kts | 235° |
| 2026-04-30 17:56 | 27.13697 | 124.06114 | 38102 ft | 425 kts | 235° |
| 2026-04-30 17:58 | 27.02284 | 123.90836 | 38106 ft | 428 kts | 235° |
| 2026-04-30 18:00 | 26.87496 | 123.71259 | 38109 ft | 430 kts | 235° |
| 2026-04-30 18:01 | 26.77797 | 123.58452 | 38112 ft | 432 kts | 234° |
| 2026-04-30 18:02 | 26.66113 | 123.43075 | 38111 ft | 433 kts | 234° |
| 2026-04-30 18:04 | 26.54393 | 123.27707 | 38108 ft | 434 kts | 234° |
| 2026-04-30 18:06 | 26.38656 | 123.07155 | 38099 ft | 436 kts | 234° |
| 2026-04-30 18:08 | 26.24840 | 122.89195 | 38107 ft | 437 kts | 234° |
| 2026-04-30 18:10 | 26.08980 | 122.68667 | 38096 ft | 438 kts | 234° |
| 2026-04-30 18:11 | 26.01227 | 122.58685 | 37184 ft | 409 kts | 234° |
| 2026-04-30 18:11 | 25.95749 | 122.51633 | 36032 ft | 396 kts | 234° |
| 2026-04-30 18:12 | 25.90401 | 122.44752 | 34712 ft | 391 kts | 234° |
| 2026-04-30 18:13 | 25.86866 | 122.40203 | 33803 ft | 387 kts | 234° |
| 2026-04-30 18:13 | 25.82205 | 122.34220 | 32642 ft | 381 kts | 234° |
| 2026-04-30 18:14 | 25.78184 | 122.29065 | 31665 ft | 375 kts | 233° |
| 2026-04-30 18:15 | 25.73104 | 122.22563 | 30472 ft | 369 kts | 233° |
| 2026-04-30 18:15 | 25.68122 | 122.16196 | 29170 ft | 363 kts | 233° |
| 2026-04-30 18:16 | 25.64827 | 122.11992 | 28311 ft | 359 kts | 233° |
| 2026-04-30 18:16 | 25.61811 | 122.07658 | 27467 ft | 350 kts | 245° |
| 2026-04-30 18:17 | 25.60880 | 122.05196 | 27065 ft | 345 kts | 255° |
| 2026-04-30 18:17 | 25.60209 | 122.02660 | 26680 ft | 342 kts | 257° |
| 2026-04-30 18:17 | 25.58944 | 121.97603 | 25914 ft | 338 kts | 257° |
| 2026-04-30 18:18 | 25.58313 | 121.95103 | 25531 ft | 336 kts | 257° |
| 2026-04-30 18:18 | 25.57681 | 121.92613 | 25163 ft | 335 kts | 257° |
| 2026-04-30 18:18 | 25.57052 | 121.90140 | 24795 ft | 333 kts | 257° |
| 2026-04-30 18:18 | 25.56423 | 121.87674 | 24429 ft | 331 kts | 257° |
| 2026-04-30 18:19 | 25.55798 | 121.85228 | 24066 ft | 329 kts | 257° |
| 2026-04-30 18:19 | 25.55175 | 121.82791 | 23702 ft | 328 kts | 257° |
| 2026-04-30 18:19 | 25.54556 | 121.80370 | 23280 ft | 326 kts | 257° |
| 2026-04-30 18:19 | 25.53939 | 121.77957 | 22851 ft | 325 kts | 257° |
| 2026-04-30 18:20 | 25.53325 | 121.75561 | 22437 ft | 323 kts | 257° |
| 2026-04-30 18:20 | 25.52720 | 121.73201 | 22036 ft | 321 kts | 257° |
| 2026-04-30 18:20 | 25.52112 | 121.70833 | 21630 ft | 319 kts | 257° |
| 2026-04-30 18:20 | 25.51506 | 121.68474 | 21233 ft | 317 kts | 256° |
| 2026-04-30 18:21 | 25.50902 | 121.66123 | 20839 ft | 316 kts | 256° |
| 2026-04-30 18:21 | 25.50304 | 121.63796 | 20453 ft | 314 kts | 256° |
| 2026-04-30 18:21 | 25.49707 | 121.61478 | 20080 ft | 312 kts | 256° |
| 2026-04-30 18:21 | 25.49087 | 121.59180 | 19698 ft | 312 kts | 253° |
| 2026-04-30 18:22 | 25.48156 | 121.57009 | 19305 ft | 314 kts | 240° |
| 2026-04-30 18:22 | 25.45390 | 121.53258 | 18589 ft | 314 kts | 233° |
| 2026-04-30 18:22 | 25.43961 | 121.51448 | 18221 ft | 311 kts | 233° |
| 2026-04-30 18:23 | 25.42542 | 121.49645 | 17811 ft | 310 kts | 233° |
| 2026-04-30 18:23 | 25.41134 | 121.47849 | 17408 ft | 308 kts | 233° |
| 2026-04-30 18:23 | 25.39737 | 121.46066 | 17018 ft | 306 kts | 233° |
| 2026-04-30 18:23 | 25.38343 | 121.44292 | 16622 ft | 305 kts | 233° |
| 2026-04-30 18:24 | 25.35604 | 121.40791 | 15852 ft | 301 kts | 233° |
| 2026-04-30 18:24 | 25.34222 | 121.39025 | 15484 ft | 299 kts | 233° |
| 2026-04-30 18:24 | 25.32882 | 121.37313 | 15108 ft | 298 kts | 233° |
| 2026-04-30 18:25 | 25.31528 | 121.35585 | 14735 ft | 296 kts | 232° |
| 2026-04-30 18:25 | 25.28842 | 121.32159 | 14018 ft | 293 kts | 232° |
| 2026-04-30 18:25 | 25.27505 | 121.30464 | 13628 ft | 292 kts | 232° |
| 2026-04-30 18:26 | 25.24856 | 121.27089 | 12794 ft | 289 kts | 232° |
| 2026-04-30 18:26 | 25.23542 | 121.25415 | 12411 ft | 288 kts | 232° |
| 2026-04-30 18:26 | 25.22233 | 121.23749 | 12009 ft | 287 kts | 232° |
| 2026-04-30 18:27 | 25.19635 | 121.20444 | 11254 ft | 283 kts | 232° |
| 2026-04-30 18:27 | 25.18344 | 121.18801 | 10858 ft | 283 kts | 232° |
| 2026-04-30 18:28 | 25.15774 | 121.15531 | 10108 ft | 281 kts | 231° |
| 2026-04-30 18:28 | 25.14498 | 121.13909 | 9748 ft | 279 kts | 231° |
| 2026-04-30 18:28 | 25.11992 | 121.10724 | 8982 ft | 274 kts | 231° |
| 2026-04-30 18:29 | 25.10741 | 121.09140 | 8608 ft | 273 kts | 230° |
| 2026-04-30 18:29 | 25.07063 | 121.04464 | 7514 ft | 266 kts | 230° |
| 2026-04-30 18:30 | 25.05056 | 121.01913 | 6926 ft | 263 kts | 229° |
| 2026-04-30 18:30 | 25.02282 | 120.98394 | 6065 ft | 260 kts | 229° |
| 2026-04-30 18:31 | 25.01097 | 120.96893 | 5662 ft | 259 kts | 229° |
| 2026-04-30 18:31 | 24.98499 | 120.94193 | 4897 ft | 259 kts | 207° |
| 2026-04-30 18:32 | 24.94992 | 120.94097 | 4287 ft | 256 kts | 157° |
| 2026-04-30 18:32 | 24.93655 | 120.95280 | 4174 ft | 242 kts | 123° |
| 2026-04-30 18:32 | 24.92735 | 120.98591 | 4043 ft | 216 kts | 102° |
| 2026-04-30 18:33 | 24.92404 | 121.00151 | 3945 ft | 206 kts | 102° |
| 2026-04-30 18:33 | 24.92006 | 121.02976 | 4010 ft | 172 kts | 81° |
| 2026-04-30 18:33 | 24.92373 | 121.04199 | 4093 ft | 170 kts | 60° |
| 2026-04-30 18:34 | 24.93064 | 121.05313 | 3999 ft | 180 kts | 50° |
| 2026-04-30 18:34 | 24.94628 | 121.07298 | 3695 ft | 165 kts | 50° |
| 2026-04-30 18:34 | 24.95356 | 121.08246 | 3507 ft | 159 kts | 49° |
| 2026-04-30 18:35 | 24.96051 | 121.09158 | 3364 ft | 152 kts | 49° |
| 2026-04-30 18:35 | 24.96693 | 121.10055 | 3164 ft | 148 kts | 52° |
| 2026-04-30 18:35 | 24.97328 | 121.10939 | 2928 ft | 149 kts | 52° |
| 2026-04-30 18:36 | 24.98576 | 121.12678 | 2536 ft | 141 kts | 52° |
| 2026-04-30 18:36 | 24.99200 | 121.13522 | 2365 ft | 141 kts | 51° |
| 2026-04-30 18:36 | 25.00496 | 121.15236 | 1923 ft | 146 kts | 49° |
| 2026-04-30 18:37 | 25.01149 | 121.16070 | 1718 ft | 142 kts | 50° |
| 2026-04-30 18:37 | 25.01787 | 121.16886 | 1495 ft | 138 kts | 50° |
| 2026-04-30 18:37 | 25.02411 | 121.17677 | 1320 ft | 135 kts | 49° |
| 2026-04-30 18:37 | 25.03030 | 121.18477 | 1128 ft | 139 kts | 49° |
| 2026-04-30 18:38 | 25.03653 | 121.19295 | 948 ft | 142 kts | 50° |
| 2026-04-30 18:38 | 25.04174 | 121.19935 | 764 ft | 143 kts | 49° |
| 2026-04-30 18:38 | 25.04833 | 121.20782 | 568 ft | 146 kts | 50° |
| 2026-04-30 18:38 | 25.05510 | 121.21622 | 353 ft | 147 kts | 49° |
| 2026-04-30 18:39 | 25.06179 | 121.22481 | 157 ft | 147 kts | 50° |
| 2026-04-30 18:39 | 25.06826 | 121.23304 | 103 ft | 125 kts | 48° |
| 2026-04-30 18:39 | 25.07243 | 121.23827 | 100 ft | 56 kts | 49° |
| 2026-04-30 18:39 | 25.07411 | 121.24039 | 101 ft | 32 kts | 49° |
| 2026-04-30 18:40 | 25.07578 | 121.24180 | 101 ft | 28 kts | 25° |
| 2026-04-30 18:40 | 25.07723 | 121.24242 | 104 ft | 17 kts | 19° |
| 2026-04-30 18:40 | 25.07828 | 121.24277 | 105 ft | 15 kts | 6° |
| 2026-04-30 18:40 | 25.07910 | 121.24243 | 106 ft | 13 kts | 321° |
| 2026-04-30 18:41 | 25.07969 | 121.24187 | 106 ft | 9 kts | 315° |
| 2026-04-30 18:41 | 25.07982 | 121.24127 | 107 ft | 8 kts | 249° |
| 2026-04-30 18:41 | 25.07955 | 121.24070 | 107 ft | 9 kts | 266° |
| 2026-04-30 18:41 | 25.07986 | 121.24014 | 106 ft | 6 kts | 311° |
| 2026-04-30 18:42 | 25.08015 | 121.23984 | 107 ft | 6 kts | 319° |
| 2026-04-30 18:42 | 25.08031 | 121.23969 | 107 ft | 0 kts | 318° |